Time;durP1;ratioP1;P1;durP2;ratioP2;P2;SDS_P1;SDS_P2;PMS_P1;PMS_P2;Temp;Humidity;BMP_temperature;BMP_pressure;BME280_temperature;BME280_humidity;BME280_pressure;Samples;Min_cycle;Max_cycle;Signal;HPM_P1;HPM_P2
2023/02/08 00:00:00;;;;;;;;;;;;;;;;;;1031327;28;19914;-76
2023/02/08 00:00:31;;;;;;;;;;;;;;;;;;1031382;28;20365;-77
2023/02/08 00:01:02;;;;;;;;;;;;;;;;;;1035285;28;20849;-76
2023/02/08 00:01:33;;;;;;;;;;;;;;;;;;1035661;28;19917;-77
2023/02/08 00:02:04;;;;;;;;;;;;;;;;;;1035313;28;20579;-76
2023/02/08 00:02:35;;;;;;;;;;;;;;;;;;1041637;28;20360;-76
2023/02/08 00:03:06;;;;;;;;;;;;;;;;;;1044044;28;19923;-76
2023/02/08 00:03:36;;;;;;;;;;;;;;;;;;1041386;28;20039;-77
2023/02/08 00:04:07;;;;;;;;;;;;;;;;;;1035213;28;19933;-76
2023/02/08 00:04:38;;;;;;;;;;;;;;;;;;1035328;28;20375;-77
2023/02/08 00:05:09;;;;;;;;;;;;;;;;;;1035354;28;19910;-76
2023/02/08 00:05:40;;;;;;;;;;;;;;;;;;1035418;28;20328;-76
2023/02/08 00:06:11;;;;;;;;;;;;;;;;;;1034587;28;19992;-76
2023/02/08 00:06:42;;;;;;;;;;;;;;;;;;1032252;28;19931;-76
2023/02/08 00:07:13;;;;;;;;;;;;;;;;;;1031613;28;19910;-76
2023/02/08 00:07:43;;;;;;;;;;;;;;;;;;1036605;28;20400;-77
2023/02/08 00:08:14;;;;;;;;;;;;;;;;;;1035407;28;19921;-77
2023/02/08 00:08:45;;;;;;;;;;;;;;;;;;1035177;28;19960;-77
2023/02/08 00:09:16;;;;;;;;;;;;;;;;;;1040276;28;20039;-78
2023/02/08 00:09:48;;;;;;;;;;;;;;;;;;1043499;28;19909;-77
2023/02/08 00:10:19;;;;;;;;;;;;;;;;;;1039441;28;20372;-76
2023/02/08 00:10:49;;;;;;;;;;;;;;;;;;1039200;28;20352;-76
2023/02/08 00:11:20;;;;;;;;;;;;;;;;;;1039315;28;20027;-76
2023/02/08 00:11:51;;;;;;;;;;;;;;;;;;1039184;28;19909;-76
2023/02/08 00:12:22;;;;;;;;;;;;;;;;;;1039437;28;19909;-76
2023/02/08 00:12:54;;;;;;;;;;;;;;;;;;1039364;28;19983;-76
2023/02/08 00:13:24;;;;;;;;;;;;;;;;;;1035523;28;19916;-77
2023/02/08 00:13:55;;;;;;;;;;;;;;;;;;1039354;28;19916;-77
2023/02/08 00:14:26;;;;;;;;;;;;;;;;;;1039254;28;19991;-76
2023/02/08 00:14:57;;;;;;;;;;;;;;;;;;1037485;28;19909;-76
2023/02/08 00:15:28;;;;;;;;;;;;;;;;;;1035737;28;20003;-76
2023/02/08 00:15:59;;;;;;;;;;;;;;;;;;1039204;28;19921;-77
2023/02/08 00:16:30;;;;;;;;;;;;;;;;;;1039257;28;19914;-75
2023/02/08 00:17:01;;;;;;;;;;;;;;;;;;1039436;28;19916;-76
2023/02/08 00:17:31;;;;;;;;;;;;;;;;;;1039476;28;19906;-76
2023/02/08 00:18:02;;;;;;;;;;;;;;;;;;1042694;28;19905;-76
2023/02/08 00:18:33;;;;;;;;;;;;;;;;;;1038434;28;19928;-76
2023/02/08 00:19:04;;;;;;;;;;;;;;;;;;1035249;28;20671;-76
2023/02/08 00:19:35;;;;;;;;;;;;;;;;;;1037026;28;19909;-76
2023/02/08 00:20:06;;;;;;;;;;;;;;;;;;1039452;28;20436;-76
2023/02/08 00:20:37;;;;;;;;;;;;;;;;;;1039717;28;19967;-76
2023/02/08 00:21:07;;;;;;;;;;;;;;;;;;1039236;28;19909;-76
2023/02/08 00:21:38;;;;;;;;;;;;;;;;;;1038462;28;20000;-77
2023/02/08 00:22:09;;;;;;;;;;;;;;;;;;1035090;28;19909;-76
2023/02/08 00:22:40;;;;;;;;;;;;;;;;;;1035254;28;19979;-76
2023/02/08 00:23:11;;;;;;;;;;;;;;;;;;1032841;28;19921;-77
2023/02/08 00:23:42;;;;;;;;;;;;;;;;;;1031347;28;19948;-76
2023/02/08 00:24:13;;;;;;;;;;;;;;;;;;1035454;28;19917;-76
2023/02/08 00:24:44;;;;;;;;;;;;;;;;;;1037328;28;19913;-77
2023/02/08 00:25:14;;;;;;;;;;;;;;;;;;1043787;28;19924;-76
2023/02/08 00:25:45;;;;;;;;;;;;;;;;;;1041702;28;20002;-77
2023/02/08 00:26:16;;;;;;;;;;;;;;;;;;1040594;28;19910;-75
2023/02/08 00:26:47;;;;;;;;;;;;;;;;;;1039240;28;19908;-76
2023/02/08 00:27:18;;;;;;;;;;;;;;;;;;1039574;28;19913;-77
2023/02/08 00:27:49;;;;;;;;;;;;;;;;;;1039217;28;19913;-76
2023/02/08 00:28:20;;;;;;;;;;;;;;;;;;1039392;28;19913;-76
2023/02/08 00:28:51;;;;;;;;;;;;;;;;;;1039285;28;19909;-76
2023/02/08 00:29:22;;;;;;;;;;;;;;;;;;1039539;28;19948;-76
2023/02/08 00:29:52;;;;;;;;;;;;;;;;;;1039486;28;20396;-76
2023/02/08 00:30:23;;;;;;;;;;;;;;;;;;1040685;28;19914;-76
2023/02/08 00:30:54;;;;;;;;;;;;;;;;;;1039673;28;19923;-76
2023/02/08 00:31:25;;;;;;;;;;;;;;;;;;1036276;28;19913;-76
2023/02/08 00:31:56;;;;;;;;;;;;;;;;;;1035237;28;19948;-76
2023/02/08 00:32:27;;;;;;;;;;;;;;;;;;1034936;28;19917;-77
2023/02/08 00:33:00;;;;;;;;;;;;;;;;;;1035669;28;19910;-76
2023/02/08 00:33:30;;;;;;;;;;;;;;;;;;1039127;28;19917;-75
2023/02/08 00:34:01;;;;;;;;;;;;;;;;;;1039536;28;19910;-76
2023/02/08 00:34:34;;;;;;;;;;;;;;;;;;1035999;28;20005;-76
2023/02/08 00:35:04;;;;;;;;;;;;;;;;;;1039409;28;20334;-76
2023/02/08 00:35:35;;;;;;;;;;;;;;;;;;1035625;28;20387;-77
2023/02/08 00:36:07;;;;;;;;;;;;;;;;;;1035546;28;19914;-76
2023/02/08 00:36:37;;;;;;;;;;;;;;;;;;1035217;28;19913;-76
2023/02/08 00:37:09;;;;;;;;;;;;;;;;;;1035431;28;19920;-77
2023/02/08 00:37:40;;;;;;;;;;;;;;;;;;1035240;28;19913;-77
2023/02/08 00:38:11;;;;;;;;;;;;;;;;;;1035650;28;19921;-76
2023/02/08 00:38:42;;;;;;;;;;;;;;;;;;1039624;28;20090;-76
2023/02/08 00:39:13;;;;;;;;;;;;;;;;;;1039884;28;20396;-77
2023/02/08 00:39:44;;;;;;;;;;;;;;;;;;1040886;28;19952;-76
2023/02/08 00:40:14;;;;;;;;;;;;;;;;;;1047536;28;19995;-76
2023/02/08 00:40:45;;;;;;;;;;;;;;;;;;1048004;28;20711;-76
2023/02/08 00:41:16;;;;;;;;;;;;;;;;;;1043649;28;19920;-76
2023/02/08 00:41:47;;;;;;;;;;;;;;;;;;1039210;28;20360;-77
2023/02/08 00:42:18;;;;;;;;;;;;;;;;;;1039388;28;19917;-77
2023/02/08 00:42:49;;;;;;;;;;;;;;;;;;1039152;28;19913;-77
2023/02/08 00:43:20;;;;;;;;;;;;;;;;;;1040702;28;19913;-77
2023/02/08 00:43:51;;;;;;;;;;;;;;;;;;1043698;28;19912;-77
2023/02/08 00:44:22;;;;;;;;;;;;;;;;;;1047685;28;20427;-77
2023/02/08 00:44:53;;;;;;;;;;;;;;;;;;1047125;28;20622;-77
2023/02/08 00:45:23;;;;;;;;;;;;;;;;;;1043408;28;19915;-76
2023/02/08 00:45:54;;;;;;;;;;;;;;;;;;1043599;28;20383;-76
2023/02/08 00:46:25;;;;;;;;;;;;;;;;;;1039363;28;20325;-76
2023/02/08 00:46:56;;;;;;;;;;;;;;;;;;1042145;28;19959;-77
2023/02/08 00:47:27;;;;;;;;;;;;;;;;;;1039225;28;20463;-76
2023/02/08 00:47:58;;;;;;;;;;;;;;;;;;1039758;28;19959;-77
2023/02/08 00:48:30;;;;;;;;;;;;;;;;;;1043295;28;20383;-77
2023/02/08 00:49:01;;;;;;;;;;;;;;;;;;1043910;28;19940;-77
2023/02/08 00:49:32;;;;;;;;;;;;;;;;;;1048118;28;19912;-76
2023/02/08 00:50:03;;;;;;;;;;;;;;;;;;1047718;28;19912;-76
2023/02/08 00:50:34;;;;;;;;;;;;;;;;;;1047814;28;20332;-76
2023/02/08 00:51:04;;;;;;;;;;;;;;;;;;1043223;28;19919;-76
2023/02/08 00:51:35;;;;;;;;;;;;;;;;;;1043509;28;19912;-77
2023/02/08 00:52:06;;;;;;;;;;;;;;;;;;1042350;28;19993;-76
2023/02/08 00:52:37;;;;;;;;;;;;;;;;;;1039298;28;19948;-76
2023/02/08 00:53:08;;;;;;;;;;;;;;;;;;1039244;28;19921;-76
2023/02/08 00:53:39;;;;;;;;;;;;;;;;;;1039224;28;19913;-76
2023/02/08 00:54:10;;;;;;;;;;;;;;;;;;1039401;28;20461;-77
2023/02/08 00:54:41;;;;;;;;;;;;;;;;;;1039249;28;20393;-76
2023/02/08 00:55:12;;;;;;;;;;;;;;;;;;1038870;28;20336;-77
2023/02/08 00:55:43;;;;;;;;;;;;;;;;;;1039244;28;20482;-76
2023/02/08 00:56:14;;;;;;;;;;;;;;;;;;1039310;28;20656;-76
2023/02/08 00:56:45;;;;;;;;;;;;;;;;;;1039149;28;19909;-77
2023/02/08 00:57:15;;;;;;;;;;;;;;;;;;1039256;28;19923;-77
2023/02/08 00:57:46;;;;;;;;;;;;;;;;;;1035443;28;19914;-77
2023/02/08 00:58:17;;;;;;;;;;;;;;;;;;1039105;28;19944;-76
2023/02/08 00:58:48;;;;;;;;;;;;;;;;;;1041806;28;19947;-76
2023/02/08 00:59:19;;;;;;;;;;;;;;;;;;1043321;28;19912;-77
2023/02/08 00:59:50;;;;;;;;;;;;;;;;;;1040915;28;19995;-77
2023/02/08 01:00:21;;;;;;;;;;;;;;;;;;1039292;28;19913;-77
2023/02/08 01:00:52;;;;;;;;;;;;;;;;;;1040650;28;19921;-76
2023/02/08 01:01:23;;;;;;;;;;;;;;;;;;1039463;28;19948;-77
2023/02/08 01:01:54;;;;;;;;;;;;;;;;;;1043397;28;19912;-77
2023/02/08 01:02:25;;;;;;;;;;;;;;;;;;1043065;28;19947;-76
2023/02/08 01:02:55;;;;;;;;;;;;;;;;;;1043161;28;19920;-76
2023/02/08 01:03:26;;;;;;;;;;;;;;;;;;1043298;28;19913;-77
2023/02/08 01:03:57;;;;;;;;;;;;;;;;;;1038450;28;20442;-77
2023/02/08 01:04:28;;;;;;;;;;;;;;;;;;1038509;28;19917;-78
2023/02/08 01:04:59;;;;;;;;;;;;;;;;;;1043322;28;20733;-77
2023/02/08 01:05:30;;;;;;;;;;;;;;;;;;1040650;28;20008;-77
2023/02/08 01:06:01;;;;;;;;;;;;;;;;;;1036973;28;19945;-77
2023/02/08 01:06:32;;;;;;;;;;;;;;;;;;1039159;28;19909;-77
2023/02/08 01:07:02;;;;;;;;;;;;;;;;;;1039193;28;20009;-77
2023/02/08 01:07:33;;;;;;;;;;;;;;;;;;1040088;28;19996;-77
2023/02/08 01:08:04;;;;;;;;;;;;;;;;;;1043157;28;19939;-76
2023/02/08 01:08:35;;;;;;;;;;;;;;;;;;1043169;28;19994;-77
2023/02/08 01:09:06;;;;;;;;;;;;;;;;;;1043183;28;19913;-75
2023/02/08 01:09:37;;;;;;;;;;;;;;;;;;1039449;28;19913;-76
2023/02/08 01:10:11;;;;;;;;;;;;;;;;;;1035024;28;20744;-77
2023/02/08 01:10:42;;;;;;;;;;;;;;;;;;1039134;28;19913;-76
2023/02/08 01:11:13;;;;;;;;;;;;;;;;;;1044709;28;20030;-75
2023/02/08 01:11:44;;;;;;;;;;;;;;;;;;1044628;28;19920;-76
2023/02/08 01:12:15;;;;;;;;;;;;;;;;;;1042864;28;19979;-76
2023/02/08 01:12:46;;;;;;;;;;;;;;;;;;1042393;28;20058;-77
2023/02/08 01:13:17;;;;;;;;;;;;;;;;;;1047348;28;20733;-76
2023/02/08 01:13:48;;;;;;;;;;;;;;;;;;1047486;28;19942;-76
2023/02/08 01:14:19;;;;;;;;;;;;;;;;;;1043087;28;19983;-77
2023/02/08 01:14:50;;;;;;;;;;;;;;;;;;1043261;28;19912;-75
2023/02/08 01:15:20;;;;;;;;;;;;;;;;;;1042074;28;19920;-76
2023/02/08 01:15:51;;;;;;;;;;;;;;;;;;1038978;28;19913;-77
2023/02/08 01:16:22;;;;;;;;;;;;;;;;;;1041192;28;20062;-76
2023/02/08 01:16:53;;;;;;;;;;;;;;;;;;1039489;28;19914;-76
2023/02/08 01:17:24;;;;;;;;;;;;;;;;;;1038953;28;19917;-76
2023/02/08 01:17:55;;;;;;;;;;;;;;;;;;1041155;28;19909;-75
2023/02/08 01:18:26;;;;;;;;;;;;;;;;;;1043079;28;19913;-76
2023/02/08 01:18:57;;;;;;;;;;;;;;;;;;1043144;28;19913;-76
2023/02/08 01:19:27;;;;;;;;;;;;;;;;;;1041874;28;19913;-76
2023/02/08 01:19:58;;;;;;;;;;;;;;;;;;1043316;28;20343;-76
2023/02/08 01:20:29;;;;;;;;;;;;;;;;;;1043329;28;19999;-76
2023/02/08 01:21:00;;;;;;;;;;;;;;;;;;1047469;28;19912;-77
2023/02/08 01:21:31;;;;;;;;;;;;;;;;;;1039392;28;19963;-76
2023/02/08 01:22:02;;;;;;;;;;;;;;;;;;1039051;28;19913;-77
2023/02/08 01:22:33;;;;;;;;;;;;;;;;;;1039131;28;19992;-77
2023/02/08 01:23:04;;;;;;;;;;;;;;;;;;1039189;28;20280;-77
2023/02/08 01:23:34;;;;;;;;;;;;;;;;;;1039079;28;19958;-77
2023/02/08 01:24:05;;;;;;;;;;;;;;;;;;1039232;28;19909;-77
2023/02/08 01:24:36;;;;;;;;;;;;;;;;;;1039249;28;19952;-77
2023/02/08 01:25:07;;;;;;;;;;;;;;;;;;1039443;28;19917;-77
2023/02/08 01:25:38;;;;;;;;;;;;;;;;;;1043415;28;19913;-77
2023/02/08 01:26:09;;;;;;;;;;;;;;;;;;1039125;28;19917;-75
2023/02/08 01:26:41;;;;;;;;;;;;;;;;;;1042800;28;19959;-77
2023/02/08 01:27:12;;;;;;;;;;;;;;;;;;1043274;28;19912;-77
2023/02/08 01:27:43;;;;;;;;;;;;;;;;;;1035357;28;19918;-77
2023/02/08 01:28:13;;;;;;;;;;;;;;;;;;1037750;28;19915;-76
2023/02/08 01:28:44;;;;;;;;;;;;;;;;;;1039126;28;19937;-75
2023/02/08 01:29:15;;;;;;;;;;;;;;;;;;1039146;28;19913;-76
2023/02/08 01:29:46;;;;;;;;;;;;;;;;;;1036579;28;19997;-76
2023/02/08 01:30:17;;;;;;;;;;;;;;;;;;1039204;28;20028;-76
2023/02/08 01:30:48;;;;;;;;;;;;;;;;;;1038912;28;19905;-76
2023/02/08 01:31:19;;;;;;;;;;;;;;;;;;1035331;28;19936;-77
2023/02/08 01:31:50;;;;;;;;;;;;;;;;;;1043030;28;19909;-76
2023/02/08 01:32:20;;;;;;;;;;;;;;;;;;1042588;28;19917;-76
2023/02/08 01:32:51;;;;;;;;;;;;;;;;;;1043152;28;19909;-77
2023/02/08 01:33:22;;;;;;;;;;;;;;;;;;1043155;28;20082;-76
2023/02/08 01:33:53;;;;;;;;;;;;;;;;;;1043463;28;20504;-76
2023/02/08 01:34:24;;;;;;;;;;;;;;;;;;1047447;28;20468;-75
2023/02/08 01:34:55;;;;;;;;;;;;;;;;;;1042947;28;19923;-76
2023/02/08 01:35:26;;;;;;;;;;;;;;;;;;1041857;28;19912;-76
2023/02/08 01:35:57;;;;;;;;;;;;;;;;;;1039206;28;20020;-76
2023/02/08 01:36:28;;;;;;;;;;;;;;;;;;1039586;28;19909;-77
2023/02/08 01:36:59;;;;;;;;;;;;;;;;;;1043233;28;20447;-76
2023/02/08 01:37:30;;;;;;;;;;;;;;;;;;1043138;28;19974;-77
2023/02/08 01:38:00;;;;;;;;;;;;;;;;;;1039481;28;20391;-75
2023/02/08 01:38:31;;;;;;;;;;;;;;;;;;1042561;28;19909;-76
2023/02/08 01:39:02;;;;;;;;;;;;;;;;;;1043422;28;20382;-77
2023/02/08 01:39:33;;;;;;;;;;;;;;;;;;1043060;28;19916;-76
2023/02/08 01:40:04;;;;;;;;;;;;;;;;;;1041616;28;20083;-77
2023/02/08 01:40:35;;;;;;;;;;;;;;;;;;1043180;28;19920;-76
2023/02/08 01:41:06;;;;;;;;;;;;;;;;;;1043115;28;20006;-76
2023/02/08 01:41:36;;;;;;;;;;;;;;;;;;1043175;28;19913;-77
2023/02/08 01:42:07;;;;;;;;;;;;;;;;;;1042961;28;19920;-76
2023/02/08 01:42:38;;;;;;;;;;;;;;;;;;1039352;28;19975;-77
2023/02/08 01:43:09;;;;;;;;;;;;;;;;;;1041141;28;19909;-77
2023/02/08 01:43:40;;;;;;;;;;;;;;;;;;1043173;28;19947;-77
2023/02/08 01:44:11;;;;;;;;;;;;;;;;;;1043207;28;19912;-76
2023/02/08 01:44:42;;;;;;;;;;;;;;;;;;1043054;28;19999;-76
2023/02/08 01:45:13;;;;;;;;;;;;;;;;;;1043147;28;19931;-76
2023/02/08 01:45:43;;;;;;;;;;;;;;;;;;1039736;28;20722;-77
2023/02/08 01:46:14;;;;;;;;;;;;;;;;;;1039124;28;19998;-76
2023/02/08 01:46:46;;;;;;;;;;;;;;;;;;1040559;28;20315;-77
2023/02/08 01:47:17;;;;;;;;;;;;;;;;;;1043398;28;19908;-77
2023/02/08 01:47:47;;;;;;;;;;;;;;;;;;1039219;28;19913;-76
2023/02/08 01:48:18;;;;;;;;;;;;;;;;;;1042849;28;19950;-76
2023/02/08 01:48:49;;;;;;;;;;;;;;;;;;1038925;28;20008;-76
2023/02/08 01:49:20;;;;;;;;;;;;;;;;;;1039318;28;19909;-76
2023/02/08 01:49:51;;;;;;;;;;;;;;;;;;1035186;28;20004;-76
2023/02/08 01:50:22;;;;;;;;;;;;;;;;;;1042020;28;19913;-77
2023/02/08 01:50:53;;;;;;;;;;;;;;;;;;1043067;28;19920;-76
2023/02/08 01:51:23;;;;;;;;;;;;;;;;;;1043607;28;20041;-76
2023/02/08 01:51:54;;;;;;;;;;;;;;;;;;1042854;28;19924;-76
2023/02/08 01:52:25;;;;;;;;;;;;;;;;;;1043408;28;19909;-76
2023/02/08 01:52:56;;;;;;;;;;;;;;;;;;1043245;28;20673;-76
2023/02/08 01:53:27;;;;;;;;;;;;;;;;;;1039905;28;19913;-75
2023/02/08 01:53:58;;;;;;;;;;;;;;;;;;1043271;28;19972;-78
2023/02/08 01:54:29;;;;;;;;;;;;;;;;;;1043150;28;20360;-77
2023/02/08 01:55:00;;;;;;;;;;;;;;;;;;1043335;28;19913;-76
2023/02/08 01:55:31;;;;;;;;;;;;;;;;;;1041823;28;19956;-77
2023/02/08 01:56:01;;;;;;;;;;;;;;;;;;1038831;28;19966;-76
2023/02/08 01:56:32;;;;;;;;;;;;;;;;;;1039058;28;19909;-77
2023/02/08 01:57:03;;;;;;;;;;;;;;;;;;1038985;28;20556;-77
2023/02/08 01:57:34;;;;;;;;;;;;;;;;;;1035119;28;19937;-76
2023/02/08 01:58:05;;;;;;;;;;;;;;;;;;1038947;28;20773;-77
2023/02/08 01:58:36;;;;;;;;;;;;;;;;;;1040045;28;19913;-76
2023/02/08 01:59:07;;;;;;;;;;;;;;;;;;1042905;28;19970;-77
2023/02/08 01:59:38;;;;;;;;;;;;;;;;;;1043499;28;19913;-77
2023/02/08 02:00:08;;;;;;;;;;;;;;;;;;1047569;28;20374;-77
2023/02/08 02:00:39;;;;;;;;;;;;;;;;;;1038879;28;20008;-77
2023/02/08 02:01:10;;;;;;;;;;;;;;;;;;1043144;28;20324;-77
2023/02/08 02:01:41;;;;;;;;;;;;;;;;;;1039035;28;19916;-76
2023/02/08 02:02:12;;;;;;;;;;;;;;;;;;1039189;28;19913;-76
2023/02/08 02:02:43;;;;;;;;;;;;;;;;;;1042967;28;19940;-77
2023/02/08 02:03:14;;;;;;;;;;;;;;;;;;1043244;28;19915;-76
2023/02/08 02:03:45;;;;;;;;;;;;;;;;;;1039073;28;19940;-77
2023/02/08 02:04:15;;;;;;;;;;;;;;;;;;1040513;28;20430;-77
2023/02/08 02:04:46;;;;;;;;;;;;;;;;;;1043026;28;19955;-76
2023/02/08 02:05:17;;;;;;;;;;;;;;;;;;1042862;28;19913;-76
2023/02/08 02:05:48;;;;;;;;;;;;;;;;;;1039407;28;19919;-77
2023/02/08 02:06:19;;;;;;;;;;;;;;;;;;1039004;28;19916;-77
2023/02/08 02:06:50;;;;;;;;;;;;;;;;;;1039106;28;20612;-77
2023/02/08 02:07:21;;;;;;;;;;;;;;;;;;1043522;28;19909;-77
2023/02/08 02:07:52;;;;;;;;;;;;;;;;;;1041143;28;19916;-77
2023/02/08 02:08:22;;;;;;;;;;;;;;;;;;1039201;28;20353;-78
2023/02/08 02:08:53;;;;;;;;;;;;;;;;;;1038979;28;20004;-77
2023/02/08 02:09:24;;;;;;;;;;;;;;;;;;1041100;28;20345;-77
2023/02/08 02:09:55;;;;;;;;;;;;;;;;;;1043182;28;19915;-77
2023/02/08 02:10:27;;;;;;;;;;;;;;;;;;1043118;28;19923;-77
2023/02/08 02:10:58;;;;;;;;;;;;;;;;;;1043256;28;19913;-77
2023/02/08 02:11:29;;;;;;;;;;;;;;;;;;1043170;28;19909;-76
2023/02/08 02:12:00;;;;;;;;;;;;;;;;;;1043615;28;20007;-77
2023/02/08 02:12:31;;;;;;;;;;;;;;;;;;1047676;28;19912;-78
2023/02/08 02:13:02;;;;;;;;;;;;;;;;;;1042965;28;19978;-77
2023/02/08 02:13:32;;;;;;;;;;;;;;;;;;1043291;28;19959;-77
2023/02/08 02:14:03;;;;;;;;;;;;;;;;;;1042991;28;19913;-77
2023/02/08 02:14:34;;;;;;;;;;;;;;;;;;1043460;28;20529;-77
2023/02/08 02:15:05;;;;;;;;;;;;;;;;;;1044459;28;20074;-77
2023/02/08 02:15:36;;;;;;;;;;;;;;;;;;1039060;28;19910;-77
2023/02/08 02:16:07;;;;;;;;;;;;;;;;;;1038713;28;20261;-77
2023/02/08 02:16:38;;;;;;;;;;;;;;;;;;1035001;28;20581;-77
2023/02/08 02:17:09;;;;;;;;;;;;;;;;;;1034991;28;19916;-77
2023/02/08 02:17:39;;;;;;;;;;;;;;;;;;1034785;28;19940;-77
2023/02/08 02:18:10;;;;;;;;;;;;;;;;;;1035111;28;19963;-77
2023/02/08 02:18:41;;;;;;;;;;;;;;;;;;1039111;28;19909;-77
2023/02/08 02:19:12;;;;;;;;;;;;;;;;;;1039335;28;19917;-76
2023/02/08 02:19:43;;;;;;;;;;;;;;;;;;1039049;28;19936;-76
2023/02/08 02:20:14;;;;;;;;;;;;;;;;;;1039242;28;19916;-76
2023/02/08 02:20:45;;;;;;;;;;;;;;;;;;1039009;28;20404;-76
2023/02/08 02:21:16;;;;;;;;;;;;;;;;;;1039020;28;19996;-75
2023/02/08 02:21:46;;;;;;;;;;;;;;;;;;1038933;28;19909;-78
2023/02/08 02:22:18;;;;;;;;;;;;;;;;;;1039041;28;19909;-75
2023/02/08 02:22:49;;;;;;;;;;;;;;;;;;1039044;28;19921;-76
2023/02/08 02:23:19;;;;;;;;;;;;;;;;;;1043241;28;19959;-76
2023/02/08 02:23:50;;;;;;;;;;;;;;;;;;1043069;28;19912;-76
2023/02/08 02:24:21;;;;;;;;;;;;;;;;;;1043095;28;19983;-76
2023/02/08 02:24:52;;;;;;;;;;;;;;;;;;1043019;28;19953;-77
2023/02/08 02:25:23;;;;;;;;;;;;;;;;;;1043220;28;20008;-77
2023/02/08 02:25:54;;;;;;;;;;;;;;;;;;1040849;28;19976;-76
2023/02/08 02:26:25;;;;;;;;;;;;;;;;;;1042974;28;19913;-76
2023/02/08 02:26:56;;;;;;;;;;;;;;;;;;1043128;28;19919;-76
2023/02/08 02:27:26;;;;;;;;;;;;;;;;;;1043247;28;19962;-76
2023/02/08 02:27:57;;;;;;;;;;;;;;;;;;1043168;28;19913;-77
2023/02/08 02:28:28;;;;;;;;;;;;;;;;;;1047267;28;20347;-77
2023/02/08 02:28:59;;;;;;;;;;;;;;;;;;1043035;28;19920;-77
2023/02/08 02:29:30;;;;;;;;;;;;;;;;;;1043266;28;19916;-77
2023/02/08 02:30:01;;;;;;;;;;;;;;;;;;1042941;28;19909;-76
2023/02/08 02:30:32;;;;;;;;;;;;;;;;;;1039256;28;20588;-77
2023/02/08 02:31:03;;;;;;;;;;;;;;;;;;1043091;28;20583;-77
2023/02/08 02:31:35;;;;;;;;;;;;;;;;;;1041446;28;19921;-76
2023/02/08 02:32:06;;;;;;;;;;;;;;;;;;1042679;28;19913;-76
2023/02/08 02:32:37;;;;;;;;;;;;;;;;;;1043051;28;20019;-76
2023/02/08 02:33:08;;;;;;;;;;;;;;;;;;1042872;28;19913;-75
2023/02/08 02:33:39;;;;;;;;;;;;;;;;;;1042983;28;19913;-76
2023/02/08 02:34:09;;;;;;;;;;;;;;;;;;1039611;28;20292;-76
2023/02/08 02:34:40;;;;;;;;;;;;;;;;;;1035340;28;19916;-76
2023/02/08 02:35:11;;;;;;;;;;;;;;;;;;1034746;28;20023;-76
2023/02/08 02:35:42;;;;;;;;;;;;;;;;;;1034927;28;19914;-77
2023/02/08 02:36:13;;;;;;;;;;;;;;;;;;1034776;28;19914;-76
2023/02/08 02:36:44;;;;;;;;;;;;;;;;;;1040274;28;19920;-76
2023/02/08 02:37:15;;;;;;;;;;;;;;;;;;1042995;28;19921;-77
2023/02/08 02:37:48;;;;;;;;;;;;;;;;;;1039260;28;19914;-77
2023/02/08 02:38:19;;;;;;;;;;;;;;;;;;1042991;28;19913;-77
2023/02/08 02:38:50;;;;;;;;;;;;;;;;;;1043205;28;19913;-76
2023/02/08 02:39:21;;;;;;;;;;;;;;;;;;1043037;28;19919;-76
2023/02/08 02:39:51;;;;;;;;;;;;;;;;;;1042890;28;19909;-77
2023/02/08 02:40:22;;;;;;;;;;;;;;;;;;1042926;28;19913;-77
2023/02/08 02:40:53;;;;;;;;;;;;;;;;;;1043091;28;19929;-78
2023/02/08 02:43:53;;;;;;;;;;;;;;;;;;1043464;28;19915;-77
2023/02/08 02:44:24;;;;;;;;;;;;;;;;;;1043158;28;19908;-77
2023/02/08 02:44:55;;;;;;;;;;;;;;;;;;1039034;28;20044;-77
2023/02/08 02:45:26;;;;;;;;;;;;;;;;;;1038995;28;19917;-76
2023/02/08 02:45:57;;;;;;;;;;;;;;;;;;1034441;28;19920;-76
2023/02/08 02:46:28;;;;;;;;;;;;;;;;;;1034872;28;20624;-76
2023/02/08 02:47:00;;;;;;;;;;;;;;;;;;1038934;28;19906;-76
2023/02/08 02:47:31;;;;;;;;;;;;;;;;;;1039247;28;19913;-77
2023/02/08 02:48:01;;;;;;;;;;;;;;;;;;1043195;28;19909;-76
2023/02/08 02:48:32;;;;;;;;;;;;;;;;;;1038861;28;19933;-76
2023/02/08 02:49:03;;;;;;;;;;;;;;;;;;1038777;28;19968;-77
2023/02/08 02:49:34;;;;;;;;;;;;;;;;;;1038989;28;19909;-77
2023/02/08 02:50:05;;;;;;;;;;;;;;;;;;1038999;28;19984;-76
2023/02/08 02:50:36;;;;;;;;;;;;;;;;;;1038890;28;19909;-76
2023/02/08 02:51:07;;;;;;;;;;;;;;;;;;1038975;28;20004;-76
2023/02/08 02:51:38;;;;;;;;;;;;;;;;;;1038932;28;20521;-75
2023/02/08 02:52:08;;;;;;;;;;;;;;;;;;1039037;28;19952;-77
2023/02/08 02:52:39;;;;;;;;;;;;;;;;;;1043167;28;19905;-77
2023/02/08 02:53:10;;;;;;;;;;;;;;;;;;1041321;28;20752;-77
2023/02/08 02:53:41;;;;;;;;;;;;;;;;;;1034821;28;19916;-77
2023/02/08 02:54:12;;;;;;;;;;;;;;;;;;1035028;28;19910;-77
2023/02/08 02:54:43;;;;;;;;;;;;;;;;;;1038832;28;19988;-76
2023/02/08 02:55:14;;;;;;;;;;;;;;;;;;1038914;28;19960;-75
2023/02/08 02:55:45;;;;;;;;;;;;;;;;;;1038848;28;20348;-77
2023/02/08 02:56:15;;;;;;;;;;;;;;;;;;1039229;28;19909;-76
2023/02/08 02:56:46;;;;;;;;;;;;;;;;;;1043108;28;20000;-77
2023/02/08 02:57:17;;;;;;;;;;;;;;;;;;1042890;28;19937;-76
2023/02/08 02:57:48;;;;;;;;;;;;;;;;;;1042433;28;19932;-77
2023/02/08 02:58:19;;;;;;;;;;;;;;;;;;1042943;28;19909;-77
2023/02/08 02:58:50;;;;;;;;;;;;;;;;;;1038897;28;20007;-77
2023/02/08 02:59:21;;;;;;;;;;;;;;;;;;1040068;28;19909;-77
2023/02/08 02:59:51;;;;;;;;;;;;;;;;;;1036156;28;20435;-77
2023/02/08 03:00:22;;;;;;;;;;;;;;;;;;1034741;28;19909;-77
2023/02/08 03:00:53;;;;;;;;;;;;;;;;;;1035141;28;20478;-75
2023/02/08 03:01:28;;;;;;;;;;;;;;;;;;1031141;28;19910;-75
2023/02/08 03:01:59;;;;;;;;;;;;;;;;;;1035841;28;19906;-76
2023/02/08 03:02:31;;;;;;;;;;;;;;;;;;1039232;28;19923;-76
2023/02/08 03:03:01;;;;;;;;;;;;;;;;;;1039482;28;19945;-75
2023/02/08 03:03:33;;;;;;;;;;;;;;;;;;1043034;28;19919;-76
2023/02/08 03:04:03;;;;;;;;;;;;;;;;;;1043054;28;19984;-76
2023/02/08 03:04:35;;;;;;;;;;;;;;;;;;1043216;28;19951;-76
2023/02/08 03:05:06;;;;;;;;;;;;;;;;;;1042945;28;20655;-75
2023/02/08 03:05:37;;;;;;;;;;;;;;;;;;1042861;28;20352;-76
2023/02/08 03:06:08;;;;;;;;;;;;;;;;;;1038641;28;19948;-77
2023/02/08 03:06:38;;;;;;;;;;;;;;;;;;1039067;28;19909;-76
2023/02/08 03:07:09;;;;;;;;;;;;;;;;;;1034807;28;19920;-76
2023/02/08 03:07:40;;;;;;;;;;;;;;;;;;1035101;28;19972;-77
2023/02/08 03:08:11;;;;;;;;;;;;;;;;;;1038829;28;19913;-76
2023/02/08 03:08:42;;;;;;;;;;;;;;;;;;1034842;28;20093;-78
2023/02/08 03:09:13;;;;;;;;;;;;;;;;;;1039117;28;19996;-77
2023/02/08 03:09:44;;;;;;;;;;;;;;;;;;1038979;28;19932;-77
2023/02/08 03:10:14;;;;;;;;;;;;;;;;;;1039063;28;19917;-77
2023/02/08 03:10:45;;;;;;;;;;;;;;;;;;1038859;28;19913;-77
2023/02/08 03:11:17;;;;;;;;;;;;;;;;;;1039097;28;20013;-77
2023/02/08 03:11:48;;;;;;;;;;;;;;;;;;1039234;28;19920;-77
2023/02/08 03:12:19;;;;;;;;;;;;;;;;;;1043250;28;19935;-77
2023/02/08 03:12:50;;;;;;;;;;;;;;;;;;1041863;28;19921;-77
2023/02/08 03:13:20;;;;;;;;;;;;;;;;;;1043120;28;19976;-77
2023/02/08 03:13:51;;;;;;;;;;;;;;;;;;1043030;28;19951;-79
2023/02/08 03:14:22;;;;;;;;;;;;;;;;;;1040761;28;19913;-77
2023/02/08 03:14:53;;;;;;;;;;;;;;;;;;1039133;28;19986;-78
2023/02/08 03:15:24;;;;;;;;;;;;;;;;;;1038847;28;20545;-76
2023/02/08 03:15:55;;;;;;;;;;;;;;;;;;1038967;28;19920;-77
2023/02/08 03:16:26;;;;;;;;;;;;;;;;;;1038826;28;19972;-77
2023/02/08 03:16:57;;;;;;;;;;;;;;;;;;1039199;28;20479;-76
2023/02/08 03:17:28;;;;;;;;;;;;;;;;;;1039565;28;20307;-76
2023/02/08 03:17:59;;;;;;;;;;;;;;;;;;1032857;28;20008;-76
2023/02/08 03:18:30;;;;;;;;;;;;;;;;;;1035624;28;19968;-77
2023/02/08 03:19:00;;;;;;;;;;;;;;;;;;1035553;28;19914;-77
2023/02/08 03:19:31;;;;;;;;;;;;;;;;;;1037968;28;20364;-76
2023/02/08 03:20:02;;;;;;;;;;;;;;;;;;1044005;28;19913;-77
2023/02/08 03:20:33;;;;;;;;;;;;;;;;;;1044092;28;20373;-76
2023/02/08 03:21:04;;;;;;;;;;;;;;;;;;1044042;28;19919;-76
2023/02/08 03:21:35;;;;;;;;;;;;;;;;;;1044260;28;20376;-77
2023/02/08 03:22:06;;;;;;;;;;;;;;;;;;1044872;28;20809;-76
2023/02/08 03:22:37;;;;;;;;;;;;;;;;;;1043794;28;20051;-76
2023/02/08 03:23:07;;;;;;;;;;;;;;;;;;1039540;28;19913;-77
2023/02/08 03:23:38;;;;;;;;;;;;;;;;;;1039591;28;19948;-76
2023/02/08 03:24:09;;;;;;;;;;;;;;;;;;1043448;28;19915;-75
2023/02/08 03:24:40;;;;;;;;;;;;;;;;;;1043683;28;19947;-76
2023/02/08 03:25:11;;;;;;;;;;;;;;;;;;1039399;28;20025;-76
2023/02/08 03:25:43;;;;;;;;;;;;;;;;;;1039201;28;19928;-77
2023/02/08 03:26:14;;;;;;;;;;;;;;;;;;1034589;28;19936;-75
2023/02/08 03:26:44;;;;;;;;;;;;;;;;;;1035801;28;19957;-75
2023/02/08 03:27:15;;;;;;;;;;;;;;;;;;1040045;28;19914;-75
2023/02/08 03:27:46;;;;;;;;;;;;;;;;;;1035621;28;19910;-76
2023/02/08 03:28:17;;;;;;;;;;;;;;;;;;1039724;28;20447;-77
2023/02/08 03:28:48;;;;;;;;;;;;;;;;;;1039640;28;19920;-77
2023/02/08 03:29:19;;;;;;;;;;;;;;;;;;1039935;28;19909;-76
2023/02/08 03:29:50;;;;;;;;;;;;;;;;;;1039431;28;19955;-77
2023/02/08 03:30:21;;;;;;;;;;;;;;;;;;1039672;28;19920;-77
2023/02/08 03:30:52;;;;;;;;;;;;;;;;;;1035469;28;19914;-78
2023/02/08 03:31:22;;;;;;;;;;;;;;;;;;1035696;28;19964;-78
2023/02/08 03:31:53;;;;;;;;;;;;;;;;;;1039645;28;19940;-77
2023/02/08 03:32:24;;;;;;;;;;;;;;;;;;1035443;28;20033;-77
2023/02/08 03:32:55;;;;;;;;;;;;;;;;;;1039572;28;19920;-77
2023/02/08 03:33:26;;;;;;;;;;;;;;;;;;1035807;28;19913;-77